sensor_id;sensor_type;location;lat;lon;timestamp;P1;durP1;ratioP1;P2;durP2;ratioP2
22024;SDS011;11176;51.448;6.650;2023-08-08T00:02:17;6.25;;;2.00;;
22024;SDS011;11176;51.448;6.650;2023-08-08T00:04:44;5.68;;;2.17;;
22024;SDS011;11176;51.448;6.650;2023-08-08T00:07:10;3.03;;;1.80;;
22024;SDS011;11176;51.448;6.650;2023-08-08T00:09:37;4.40;;;1.60;;
22024;SDS011;11176;51.448;6.650;2023-08-08T00:12:04;3.67;;;1.80;;
22024;SDS011;11176;51.448;6.650;2023-08-08T00:14:31;3.60;;;1.60;;
22024;SDS011;11176;51.448;6.650;2023-08-08T00:16:57;8.13;;;2.08;;
22024;SDS011;11176;51.448;6.650;2023-08-08T00:19:24;6.53;;;1.73;;
22024;SDS011;11176;51.448;6.650;2023-08-08T00:21:51;3.42;;;1.90;;
22024;SDS011;11176;51.448;6.650;2023-08-08T00:24:17;4.90;;;1.75;;
22024;SDS011;11176;51.448;6.650;2023-08-08T00:26:44;3.28;;;1.60;;
22024;SDS011;11176;51.448;6.650;2023-08-08T00:29:10;3.10;;;1.55;;
22024;SDS011;11176;51.448;6.650;2023-08-08T00:31:37;2.95;;;1.77;;
22024;SDS011;11176;51.448;6.650;2023-08-08T00:34:04;4.53;;;2.17;;
22024;SDS011;11176;51.448;6.650;2023-08-08T00:36:30;3.95;;;1.98;;
22024;SDS011;11176;51.448;6.650;2023-08-08T00:38:57;4.35;;;1.77;;
22024;SDS011;11176;51.448;6.650;2023-08-08T00:41:23;4.85;;;2.20;;
22024;SDS011;11176;51.448;6.650;2023-08-08T00:43:49;2.58;;;1.67;;
22024;SDS011;11176;51.448;6.650;2023-08-08T00:46:17;3.17;;;1.88;;
22024;SDS011;11176;51.448;6.650;2023-08-08T00:48:48;5.38;;;1.98;;
22024;SDS011;11176;51.448;6.650;2023-08-08T00:51:15;6.05;;;2.10;;
22024;SDS011;11176;51.448;6.650;2023-08-08T00:53:44;5.28;;;2.15;;
22024;SDS011;11176;51.448;6.650;2023-08-08T00:56:13;4.47;;;2.10;;
22024;SDS011;11176;51.448;6.650;2023-08-08T00:58:41;4.53;;;1.88;;
22024;SDS011;11176;51.448;6.650;2023-08-08T01:01:08;4.03;;;2.10;;
22024;SDS011;11176;51.448;6.650;2023-08-08T01:03:35;5.03;;;1.95;;
22024;SDS011;11176;51.448;6.650;2023-08-08T01:06:03;5.57;;;2.00;;
22024;SDS011;11176;51.448;6.650;2023-08-08T01:08:45;4.47;;;1.73;;
22024;SDS011;11176;51.448;6.650;2023-08-08T01:11:17;5.97;;;2.20;;
22024;SDS011;11176;51.448;6.650;2023-08-08T01:13:44;4.03;;;1.98;;
22024;SDS011;11176;51.448;6.650;2023-08-08T01:16:14;3.35;;;1.90;;
22024;SDS011;11176;51.448;6.650;2023-08-08T01:18:41;5.63;;;2.50;;
22024;SDS011;11176;51.448;6.650;2023-08-08T01:21:09;3.75;;;2.30;;
22024;SDS011;11176;51.448;6.650;2023-08-08T01:23:41;3.85;;;1.90;;
22024;SDS011;11176;51.448;6.650;2023-08-08T01:26:11;5.25;;;2.00;;
22024;SDS011;11176;51.448;6.650;2023-08-08T01:28:38;5.30;;;2.45;;
22024;SDS011;11176;51.448;6.650;2023-08-08T01:31:05;2.90;;;2.00;;
22024;SDS011;11176;51.448;6.650;2023-08-08T01:33:33;5.38;;;2.20;;
22024;SDS011;11176;51.448;6.650;2023-08-08T01:36:00;4.72;;;1.90;;
22024;SDS011;11176;51.448;6.650;2023-08-08T01:38:38;5.40;;;2.13;;
22024;SDS011;11176;51.448;6.650;2023-08-08T01:41:08;3.35;;;2.13;;
22024;SDS011;11176;51.448;6.650;2023-08-08T01:43:35;5.20;;;2.42;;
22024;SDS011;11176;51.448;6.650;2023-08-08T01:46:04;5.18;;;2.65;;
22024;SDS011;11176;51.448;6.650;2023-08-08T01:48:31;5.15;;;2.00;;
22024;SDS011;11176;51.448;6.650;2023-08-08T01:50:59;6.10;;;2.20;;
22024;SDS011;11176;51.448;6.650;2023-08-08T01:53:25;4.40;;;2.67;;
22024;SDS011;11176;51.448;6.650;2023-08-08T01:55:52;4.70;;;2.42;;
22024;SDS011;11176;51.448;6.650;2023-08-08T01:58:19;4.43;;;2.30;;
22024;SDS011;11176;51.448;6.650;2023-08-08T02:00:45;4.93;;;2.47;;
22024;SDS011;11176;51.448;6.650;2023-08-08T02:03:13;3.70;;;2.15;;
22024;SDS011;11176;51.448;6.650;2023-08-08T02:05:39;3.92;;;2.00;;
22024;SDS011;11176;51.448;6.650;2023-08-08T02:08:06;4.05;;;1.85;;
22024;SDS011;11176;51.448;6.650;2023-08-08T02:10:34;5.97;;;2.38;;
22024;SDS011;11176;51.448;6.650;2023-08-08T02:13:00;6.15;;;2.40;;
22024;SDS011;11176;51.448;6.650;2023-08-08T02:15:27;4.45;;;1.88;;
22024;SDS011;11176;51.448;6.650;2023-08-08T02:17:53;4.95;;;2.58;;
22024;SDS011;11176;51.448;6.650;2023-08-08T02:20:20;4.38;;;2.45;;
22024;SDS011;11176;51.448;6.650;2023-08-08T02:22:46;5.40;;;2.10;;
22024;SDS011;11176;51.448;6.650;2023-08-08T02:25:13;5.03;;;2.70;;
22024;SDS011;11176;51.448;6.650;2023-08-08T02:27:40;7.38;;;2.60;;
22024;SDS011;11176;51.448;6.650;2023-08-08T02:30:08;3.90;;;2.15;;
22024;SDS011;11176;51.448;6.650;2023-08-08T02:32:36;5.70;;;2.55;;
22024;SDS011;11176;51.448;6.650;2023-08-08T02:35:02;4.05;;;2.40;;
22024;SDS011;11176;51.448;6.650;2023-08-08T02:37:29;6.20;;;2.45;;
22024;SDS011;11176;51.448;6.650;2023-08-08T02:39:55;4.65;;;2.50;;
22024;SDS011;11176;51.448;6.650;2023-08-08T02:42:22;4.15;;;2.30;;
22024;SDS011;11176;51.448;6.650;2023-08-08T02:44:48;6.15;;;2.55;;
22024;SDS011;11176;51.448;6.650;2023-08-08T02:47:15;8.65;;;2.90;;
22024;SDS011;11176;51.448;6.650;2023-08-08T02:49:42;6.15;;;2.67;;
22024;SDS011;11176;51.448;6.650;2023-08-08T02:52:08;5.32;;;2.55;;
22024;SDS011;11176;51.448;6.650;2023-08-08T02:54:35;5.32;;;2.50;;
22024;SDS011;11176;51.448;6.650;2023-08-08T02:57:02;4.53;;;2.58;;
22024;SDS011;11176;51.448;6.650;2023-08-08T02:59:29;5.07;;;2.50;;
22024;SDS011;11176;51.448;6.650;2023-08-08T03:01:56;6.45;;;2.63;;
22024;SDS011;11176;51.448;6.650;2023-08-08T03:04:22;8.02;;;2.65;;
22024;SDS011;11176;51.448;6.650;2023-08-08T03:06:49;6.00;;;2.40;;
22024;SDS011;11176;51.448;6.650;2023-08-08T03:09:15;5.30;;;2.67;;
22024;SDS011;11176;51.448;6.650;2023-08-08T03:11:43;6.43;;;2.58;;
22024;SDS011;11176;51.448;6.650;2023-08-08T03:14:13;4.22;;;2.33;;
22024;SDS011;11176;51.448;6.650;2023-08-08T03:16:39;6.80;;;3.03;;
22024;SDS011;11176;51.448;6.650;2023-08-08T03:19:07;5.40;;;2.58;;
22024;SDS011;11176;51.448;6.650;2023-08-08T03:21:36;3.88;;;2.58;;
22024;SDS011;11176;51.448;6.650;2023-08-08T03:24:03;7.95;;;2.90;;
22024;SDS011;11176;51.448;6.650;2023-08-08T03:26:30;5.72;;;2.78;;
22024;SDS011;11176;51.448;6.650;2023-08-08T03:28:57;5.55;;;2.50;;
22024;SDS011;11176;51.448;6.650;2023-08-08T03:31:31;5.70;;;2.58;;
22024;SDS011;11176;51.448;6.650;2023-08-08T03:34:00;5.57;;;2.63;;
22024;SDS011;11176;51.448;6.650;2023-08-08T03:36:27;7.38;;;2.75;;
22024;SDS011;11176;51.448;6.650;2023-08-08T03:38:54;4.00;;;2.50;;
22024;SDS011;11176;51.448;6.650;2023-08-08T03:41:20;7.20;;;3.00;;
22024;SDS011;11176;51.448;6.650;2023-08-08T03:43:47;6.53;;;3.10;;
22024;SDS011;11176;51.448;6.650;2023-08-08T03:46:13;5.15;;;2.80;;
22024;SDS011;11176;51.448;6.650;2023-08-08T03:48:41;5.72;;;2.60;;
22024;SDS011;11176;51.448;6.650;2023-08-08T03:51:07;7.97;;;2.75;;
22024;SDS011;11176;51.448;6.650;2023-08-08T03:53:33;5.82;;;2.95;;
22024;SDS011;11176;51.448;6.650;2023-08-08T03:56:00;8.70;;;2.63;;
22024;SDS011;11176;51.448;6.650;2023-08-08T03:58:26;6.05;;;2.70;;
22024;SDS011;11176;51.448;6.650;2023-08-08T04:00:53;4.40;;;2.78;;
22024;SDS011;11176;51.448;6.650;2023-08-08T04:03:19;7.45;;;2.90;;
22024;SDS011;11176;51.448;6.650;2023-08-08T04:05:47;6.20;;;3.15;;
22024;SDS011;11176;51.448;6.650;2023-08-08T04:08:14;7.60;;;3.17;;
22024;SDS011;11176;51.448;6.650;2023-08-08T04:10:41;7.45;;;3.00;;
22024;SDS011;11176;51.448;6.650;2023-08-08T04:13:09;5.80;;;3.00;;
22024;SDS011;11176;51.448;6.650;2023-08-08T04:15:36;8.02;;;3.45;;
22024;SDS011;11176;51.448;6.650;2023-08-08T04:18:03;7.60;;;3.45;;
22024;SDS011;11176;51.448;6.650;2023-08-08T04:20:33;8.93;;;3.70;;
22024;SDS011;11176;51.448;6.650;2023-08-08T04:23:00;6.72;;;3.50;;
22024;SDS011;11176;51.448;6.650;2023-08-08T04:25:27;9.70;;;3.95;;
22024;SDS011;11176;51.448;6.650;2023-08-08T04:27:55;8.07;;;3.45;;
22024;SDS011;11176;51.448;6.650;2023-08-08T04:30:21;8.13;;;3.75;;
22024;SDS011;11176;51.448;6.650;2023-08-08T04:32:49;9.52;;;3.92;;
22024;SDS011;11176;51.448;6.650;2023-08-08T04:35:16;8.18;;;3.92;;
22024;SDS011;11176;51.448;6.650;2023-08-08T04:37:42;6.03;;;3.80;;
22024;SDS011;11176;51.448;6.650;2023-08-08T04:40:09;7.57;;;3.70;;
22024;SDS011;11176;51.448;6.650;2023-08-08T04:42:36;8.82;;;3.50;;
22024;SDS011;11176;51.448;6.650;2023-08-08T04:45:03;9.25;;;3.50;;
22024;SDS011;11176;51.448;6.650;2023-08-08T04:47:30;7.70;;;3.03;;
22024;SDS011;11176;51.448;6.650;2023-08-08T04:49:57;8.90;;;3.53;;
22024;SDS011;11176;51.448;6.650;2023-08-08T04:52:23;9.02;;;4.07;;
22024;SDS011;11176;51.448;6.650;2023-08-08T04:54:50;8.10;;;3.60;;
22024;SDS011;11176;51.448;6.650;2023-08-08T04:57:16;10.75;;;3.40;;
22024;SDS011;11176;51.448;6.650;2023-08-08T04:59:43;11.02;;;3.75;;
22024;SDS011;11176;51.448;6.650;2023-08-08T05:02:09;6.10;;;3.30;;
22024;SDS011;11176;51.448;6.650;2023-08-08T05:04:36;10.02;;;4.00;;
22024;SDS011;11176;51.448;6.650;2023-08-08T05:07:03;7.80;;;3.78;;
22024;SDS011;11176;51.448;6.650;2023-08-08T05:09:29;10.60;;;4.30;;
22024;SDS011;11176;51.448;6.650;2023-08-08T05:11:56;10.82;;;4.07;;
22024;SDS011;11176;51.448;6.650;2023-08-08T05:14:23;9.52;;;4.13;;
22024;SDS011;11176;51.448;6.650;2023-08-08T05:16:49;8.60;;;4.57;;
22024;SDS011;11176;51.448;6.650;2023-08-08T05:19:16;10.63;;;4.53;;
22024;SDS011;11176;51.448;6.650;2023-08-08T05:21:42;11.13;;;4.57;;
22024;SDS011;11176;51.448;6.650;2023-08-08T05:24:09;8.48;;;4.43;;
22024;SDS011;11176;51.448;6.650;2023-08-08T05:26:36;7.82;;;5.00;;
22024;SDS011;11176;51.448;6.650;2023-08-08T05:29:02;9.75;;;4.93;;
22024;SDS011;11176;51.448;6.650;2023-08-08T05:31:29;10.98;;;4.63;;
22024;SDS011;11176;51.448;6.650;2023-08-08T05:33:55;12.75;;;6.30;;
22024;SDS011;11176;51.448;6.650;2023-08-08T05:36:22;12.98;;;7.35;;
22024;SDS011;11176;51.448;6.650;2023-08-08T05:38:49;10.85;;;5.82;;
22024;SDS011;11176;51.448;6.650;2023-08-08T05:41:15;11.70;;;6.78;;
22024;SDS011;11176;51.448;6.650;2023-08-08T05:43:42;14.35;;;6.78;;
22024;SDS011;11176;51.448;6.650;2023-08-08T05:46:08;13.23;;;6.60;;
22024;SDS011;11176;51.448;6.650;2023-08-08T05:48:35;14.23;;;7.13;;
22024;SDS011;11176;51.448;6.650;2023-08-08T05:51:02;15.73;;;7.13;;
22024;SDS011;11176;51.448;6.650;2023-08-08T05:53:31;14.88;;;6.95;;
22024;SDS011;11176;51.448;6.650;2023-08-08T05:55:59;14.50;;;7.85;;
22024;SDS011;11176;51.448;6.650;2023-08-08T05:58:26;14.32;;;7.70;;
22024;SDS011;11176;51.448;6.650;2023-08-08T06:00:52;15.30;;;7.82;;
22024;SDS011;11176;51.448;6.650;2023-08-08T06:03:19;21.13;;;9.00;;
22024;SDS011;11176;51.448;6.650;2023-08-08T06:05:47;17.25;;;9.20;;
22024;SDS011;11176;51.448;6.650;2023-08-08T06:08:13;18.80;;;9.75;;
22024;SDS011;11176;51.448;6.650;2023-08-08T06:10:42;16.20;;;8.90;;
22024;SDS011;11176;51.448;6.650;2023-08-08T06:13:09;15.80;;;9.52;;
22024;SDS011;11176;51.448;6.650;2023-08-08T06:15:36;16.73;;;10.00;;
22024;SDS011;11176;51.448;6.650;2023-08-08T06:18:02;15.40;;;8.85;;
22024;SDS011;11176;51.448;6.650;2023-08-08T06:20:29;17.73;;;10.27;;
22024;SDS011;11176;51.448;6.650;2023-08-08T06:22:56;18.77;;;9.32;;
22024;SDS011;11176;51.448;6.650;2023-08-08T06:25:22;17.70;;;10.85;;
22024;SDS011;11176;51.448;6.650;2023-08-08T06:27:49;16.75;;;9.80;;
22024;SDS011;11176;51.448;6.650;2023-08-08T06:30:16;18.08;;;10.18;;
22024;SDS011;11176;51.448;6.650;2023-08-08T06:32:42;18.52;;;10.00;;
22024;SDS011;11176;51.448;6.650;2023-08-08T06:35:09;15.88;;;9.57;;
22024;SDS011;11176;51.448;6.650;2023-08-08T06:37:38;17.75;;;9.63;;
22024;SDS011;11176;51.448;6.650;2023-08-08T06:40:05;14.65;;;9.50;;
22024;SDS011;11176;51.448;6.650;2023-08-08T06:42:33;15.25;;;10.02;;
22024;SDS011;11176;51.448;6.650;2023-08-08T06:45:00;16.13;;;9.07;;
22024;SDS011;11176;51.448;6.650;2023-08-08T06:47:27;13.68;;;8.57;;
22024;SDS011;11176;51.448;6.650;2023-08-08T06:49:53;19.27;;;8.50;;
22024;SDS011;11176;51.448;6.650;2023-08-08T06:52:21;11.30;;;7.57;;
22024;SDS011;11176;51.448;6.650;2023-08-08T06:54:48;15.55;;;7.55;;
22024;SDS011;11176;51.448;6.650;2023-08-08T06:57:14;14.90;;;7.80;;
22024;SDS011;11176;51.448;6.650;2023-08-08T06:59:41;13.80;;;7.60;;
22024;SDS011;11176;51.448;6.650;2023-08-08T07:02:09;11.25;;;6.57;;
22024;SDS011;11176;51.448;6.650;2023-08-08T07:04:36;14.15;;;8.05;;
22024;SDS011;11176;51.448;6.650;2023-08-08T07:07:02;10.63;;;6.70;;
22024;SDS011;11176;51.448;6.650;2023-08-08T07:09:29;13.00;;;7.13;;
22024;SDS011;11176;51.448;6.650;2023-08-08T07:11:55;11.52;;;6.47;;
22024;SDS011;11176;51.448;6.650;2023-08-08T07:14:22;15.95;;;6.78;;
22024;SDS011;11176;51.448;6.650;2023-08-08T07:16:49;9.45;;;5.93;;
22024;SDS011;11176;51.448;6.650;2023-08-08T07:19:15;8.10;;;5.30;;
22024;SDS011;11176;51.448;6.650;2023-08-08T07:21:41;14.30;;;5.15;;
22024;SDS011;11176;51.448;6.650;2023-08-08T07:24:08;8.25;;;4.93;;
22024;SDS011;11176;51.448;6.650;2023-08-08T07:26:36;9.65;;;4.47;;
22024;SDS011;11176;51.448;6.650;2023-08-08T07:29:02;11.45;;;4.53;;
22024;SDS011;11176;51.448;6.650;2023-08-08T07:31:32;13.25;;;4.80;;
22024;SDS011;11176;51.448;6.650;2023-08-08T07:33:59;12.57;;;4.70;;
22024;SDS011;11176;51.448;6.650;2023-08-08T07:36:25;13.15;;;4.53;;
22024;SDS011;11176;51.448;6.650;2023-08-08T07:38:52;10.65;;;4.05;;
22024;SDS011;11176;51.448;6.650;2023-08-08T07:41:18;9.27;;;4.35;;
22024;SDS011;11176;51.448;6.650;2023-08-08T07:43:45;7.38;;;3.70;;
22024;SDS011;11176;51.448;6.650;2023-08-08T07:46:11;12.27;;;3.50;;
22024;SDS011;11176;51.448;6.650;2023-08-08T07:48:38;7.82;;;3.47;;
22024;SDS011;11176;51.448;6.650;2023-08-08T07:51:05;5.95;;;3.35;;
22024;SDS011;11176;51.448;6.650;2023-08-08T07:53:31;6.82;;;2.80;;
22024;SDS011;11176;51.448;6.650;2023-08-08T07:55:58;11.65;;;3.53;;
22024;SDS011;11176;51.448;6.650;2023-08-08T07:58:24;8.27;;;3.60;;
22024;SDS011;11176;51.448;6.650;2023-08-08T08:00:53;7.20;;;3.13;;
22024;SDS011;11176;51.448;6.650;2023-08-08T08:03:20;8.15;;;2.78;;
22024;SDS011;11176;51.448;6.650;2023-08-08T08:05:46;7.70;;;3.17;;
22024;SDS011;11176;51.448;6.650;2023-08-08T08:08:13;8.80;;;2.90;;
22024;SDS011;11176;51.448;6.650;2023-08-08T08:10:39;9.48;;;3.13;;
22024;SDS011;11176;51.448;6.650;2023-08-08T08:13:06;7.38;;;3.03;;
22024;SDS011;11176;51.448;6.650;2023-08-08T08:15:32;6.18;;;2.67;;
22024;SDS011;11176;51.448;6.650;2023-08-08T08:17:59;9.63;;;2.72;;
22024;SDS011;11176;51.448;6.650;2023-08-08T08:20:26;6.20;;;2.70;;
22024;SDS011;11176;51.448;6.650;2023-08-08T08:22:53;8.82;;;2.72;;
22024;SDS011;11176;51.448;6.650;2023-08-08T08:25:19;5.45;;;2.65;;
22024;SDS011;11176;51.448;6.650;2023-08-08T08:27:46;7.65;;;2.67;;
22024;SDS011;11176;51.448;6.650;2023-08-08T08:30:12;9.60;;;2.80;;
22024;SDS011;11176;51.448;6.650;2023-08-08T08:32:39;7.68;;;2.78;;
22024;SDS011;11176;51.448;6.650;2023-08-08T08:35:07;7.78;;;2.95;;
22024;SDS011;11176;51.448;6.650;2023-08-08T08:37:34;9.30;;;2.72;;
22024;SDS011;11176;51.448;6.650;2023-08-08T08:40:01;7.97;;;2.83;;
22024;SDS011;11176;51.448;6.650;2023-08-08T08:42:30;8.73;;;2.90;;
22024;SDS011;11176;51.448;6.650;2023-08-08T08:44:59;9.05;;;2.45;;
22024;SDS011;11176;51.448;6.650;2023-08-08T08:47:29;8.15;;;2.47;;
22024;SDS011;11176;51.448;6.650;2023-08-08T08:49:57;9.35;;;2.72;;
22024;SDS011;11176;51.448;6.650;2023-08-08T08:52:24;6.95;;;2.95;;
22024;SDS011;11176;51.448;6.650;2023-08-08T08:54:51;8.40;;;2.78;;
22024;SDS011;11176;51.448;6.650;2023-08-08T08:57:20;6.97;;;2.97;;
22024;SDS011;11176;51.448;6.650;2023-08-08T08:59:50;9.27;;;2.72;;
22024;SDS011;11176;51.448;6.650;2023-08-08T09:02:20;8.00;;;2.67;;
22024;SDS011;11176;51.448;6.650;2023-08-08T09:04:47;8.18;;;3.22;;
22024;SDS011;11176;51.448;6.650;2023-08-08T09:07:14;7.05;;;2.80;;
22024;SDS011;11176;51.448;6.650;2023-08-08T09:09:42;9.13;;;2.53;;
22024;SDS011;11176;51.448;6.650;2023-08-08T09:12:09;6.95;;;2.88;;
22024;SDS011;11176;51.448;6.650;2023-08-08T09:14:38;5.72;;;2.22;;
22024;SDS011;11176;51.448;6.650;2023-08-08T09:17:11;6.07;;;2.67;;
22024;SDS011;11176;51.448;6.650;2023-08-08T09:19:41;7.25;;;2.45;;
22024;SDS011;11176;51.448;6.650;2023-08-08T09:22:09;7.13;;;2.45;;
22024;SDS011;11176;51.448;6.650;2023-08-08T09:24:42;9.98;;;2.72;;
22024;SDS011;11176;51.448;6.650;2023-08-08T09:27:09;7.28;;;2.38;;
22024;SDS011;11176;51.448;6.650;2023-08-08T09:29:39;7.88;;;2.67;;
22024;SDS011;11176;51.448;6.650;2023-08-08T09:32:06;4.63;;;2.00;;
22024;SDS011;11176;51.448;6.650;2023-08-08T09:34:33;7.53;;;2.40;;
22024;SDS011;11176;51.448;6.650;2023-08-08T09:37:00;7.18;;;2.42;;
22024;SDS011;11176;51.448;6.650;2023-08-08T09:39:28;10.25;;;3.05;;
22024;SDS011;11176;51.448;6.650;2023-08-08T09:41:57;7.75;;;2.47;;
22024;SDS011;11176;51.448;6.650;2023-08-08T09:44:24;6.90;;;2.17;;
22024;SDS011;11176;51.448;6.650;2023-08-08T09:46:52;9.00;;;2.70;;
22024;SDS011;11176;51.448;6.650;2023-08-08T09:49:19;6.18;;;2.45;;
22024;SDS011;11176;51.448;6.650;2023-08-08T09:51:48;7.40;;;2.53;;
22024;SDS011;11176;51.448;6.650;2023-08-08T09:54:16;6.65;;;2.40;;
22024;SDS011;11176;51.448;6.650;2023-08-08T09:56:43;7.05;;;2.20;;
22024;SDS011;11176;51.448;6.650;2023-08-08T09:59:10;5.65;;;2.30;;
22024;SDS011;11176;51.448;6.650;2023-08-08T10:01:38;7.20;;;2.22;;
22024;SDS011;11176;51.448;6.650;2023-08-08T10:04:08;6.88;;;2.67;;
22024;SDS011;11176;51.448;6.650;2023-08-08T10:06:34;6.70;;;2.53;;
22024;SDS011;11176;51.448;6.650;2023-08-08T10:09:01;6.68;;;2.22;;
22024;SDS011;11176;51.448;6.650;2023-08-08T10:11:29;5.70;;;1.95;;
22024;SDS011;11176;51.448;6.650;2023-08-08T10:13:57;6.00;;;2.03;;
22024;SDS011;11176;51.448;6.650;2023-08-08T10:16:26;5.57;;;2.25;;
22024;SDS011;11176;51.448;6.650;2023-08-08T10:18:56;5.15;;;1.98;;
22024;SDS011;11176;51.448;6.650;2023-08-08T10:21:25;7.68;;;2.15;;
22024;SDS011;11176;51.448;6.650;2023-08-08T10:24:02;5.63;;;1.92;;
22024;SDS011;11176;51.448;6.650;2023-08-08T10:26:30;6.93;;;1.80;;
22024;SDS011;11176;51.448;6.650;2023-08-08T10:28:57;4.28;;;1.73;;
22024;SDS011;11176;51.448;6.650;2023-08-08T10:31:25;6.32;;;2.00;;
22024;SDS011;11176;51.448;6.650;2023-08-08T10:34:03;6.18;;;1.60;;
22024;SDS011;11176;51.448;6.650;2023-08-08T10:36:44;4.55;;;1.83;;
22024;SDS011;11176;51.448;6.650;2023-08-08T10:39:15;3.40;;;1.65;;
22024;SDS011;11176;51.448;6.650;2023-08-08T10:41:44;7.03;;;2.00;;
22024;SDS011;11176;51.448;6.650;2023-08-08T10:44:22;4.75;;;1.63;;
22024;SDS011;11176;51.448;6.650;2023-08-08T10:46:50;6.90;;;1.98;;
22024;SDS011;11176;51.448;6.650;2023-08-08T10:49:17;4.57;;;1.70;;
22024;SDS011;11176;51.448;6.650;2023-08-08T10:51:45;3.85;;;1.60;;
22024;SDS011;11176;51.448;6.650;2023-08-08T10:54:17;4.90;;;1.70;;
22024;SDS011;11176;51.448;6.650;2023-08-08T10:56:49;4.50;;;1.70;;
22024;SDS011;11176;51.448;6.650;2023-08-08T10:59:18;6.05;;;2.10;;
22024;SDS011;11176;51.448;6.650;2023-08-08T11:01:50;6.80;;;1.98;;
22024;SDS011;11176;51.448;6.650;2023-08-08T11:04:19;7.05;;;2.13;;
22024;SDS011;11176;51.448;6.650;2023-08-08T11:06:47;4.78;;;1.55;;
22024;SDS011;11176;51.448;6.650;2023-08-08T11:09:16;8.10;;;1.95;;
22024;SDS011;11176;51.448;6.650;2023-08-08T11:11:44;6.03;;;2.10;;
22024;SDS011;11176;51.448;6.650;2023-08-08T11:14:14;4.35;;;1.67;;
22024;SDS011;11176;51.448;6.650;2023-08-08T11:16:43;4.57;;;1.60;;
22024;SDS011;11176;51.448;6.650;2023-08-08T11:19:11;5.97;;;1.95;;
22024;SDS011;11176;51.448;6.650;2023-08-08T11:21:42;3.42;;;1.55;;
22024;SDS011;11176;51.448;6.650;2023-08-08T11:24:10;3.25;;;1.20;;
22024;SDS011;11176;51.448;6.650;2023-08-08T11:26:41;4.45;;;1.55;;
22024;SDS011;11176;51.448;6.650;2023-08-08T11:29:11;4.07;;;1.55;;
22024;SDS011;11176;51.448;6.650;2023-08-08T11:31:38;6.00;;;1.55;;
22024;SDS011;11176;51.448;6.650;2023-08-08T11:34:06;5.35;;;1.60;;
22024;SDS011;11176;51.448;6.650;2023-08-08T11:36:32;4.10;;;1.45;;
22024;SDS011;11176;51.448;6.650;2023-08-08T11:39:01;5.00;;;1.27;;
22024;SDS011;11176;51.448;6.650;2023-08-08T11:41:35;8.00;;;2.00;;
22024;SDS011;11176;51.448;6.650;2023-08-08T11:44:05;5.22;;;1.70;;
22024;SDS011;11176;51.448;6.650;2023-08-08T11:46:34;4.93;;;1.60;;
22024;SDS011;11176;51.448;6.650;2023-08-08T11:49:08;3.28;;;1.42;;
22024;SDS011;11176;51.448;6.650;2023-08-08T11:51:35;6.95;;;1.70;;
22024;SDS011;11176;51.448;6.650;2023-08-08T11:54:02;3.45;;;1.63;;
22024;SDS011;11176;51.448;6.650;2023-08-08T11:56:32;4.50;;;1.60;;
22024;SDS011;11176;51.448;6.650;2023-08-08T11:59:00;6.38;;;1.90;;
22024;SDS011;11176;51.448;6.650;2023-08-08T12:01:27;4.00;;;1.40;;
22024;SDS011;11176;51.448;6.650;2023-08-08T12:03:55;4.97;;;1.60;;
22024;SDS011;11176;51.448;6.650;2023-08-08T12:06:22;5.88;;;1.90;;
22024;SDS011;11176;51.448;6.650;2023-08-08T12:08:49;2.95;;;1.30;;
22024;SDS011;11176;51.448;6.650;2023-08-08T12:11:16;4.57;;;1.63;;
22024;SDS011;11176;51.448;6.650;2023-08-08T12:13:44;5.20;;;2.00;;
22024;SDS011;11176;51.448;6.650;2023-08-08T12:16:11;4.22;;;1.58;;
22024;SDS011;11176;51.448;6.650;2023-08-08T12:18:43;4.32;;;1.60;;
22024;SDS011;11176;51.448;6.650;2023-08-08T12:21:11;3.80;;;1.48;;
22024;SDS011;11176;51.448;6.650;2023-08-08T12:23:37;6.78;;;1.65;;
22024;SDS011;11176;51.448;6.650;2023-08-08T12:26:04;5.80;;;1.70;;
22024;SDS011;11176;51.448;6.650;2023-08-08T12:28:32;5.85;;;1.50;;
22024;SDS011;11176;51.448;6.650;2023-08-08T12:30:59;5.25;;;2.00;;
22024;SDS011;11176;51.448;6.650;2023-08-08T12:33:25;5.63;;;1.80;;
22024;SDS011;11176;51.448;6.650;2023-08-08T12:35:52;4.00;;;1.45;;
22024;SDS011;11176;51.448;6.650;2023-08-08T12:38:19;4.25;;;1.75;;
22024;SDS011;11176;51.448;6.650;2023-08-08T12:40:45;4.43;;;1.42;;
22024;SDS011;11176;51.448;6.650;2023-08-08T12:43:12;4.57;;;1.60;;
22024;SDS011;11176;51.448;6.650;2023-08-08T12:45:40;4.65;;;1.45;;
22024;SDS011;11176;51.448;6.650;2023-08-08T12:48:06;4.47;;;1.92;;
22024;SDS011;11176;51.448;6.650;2023-08-08T12:50:33;3.47;;;1.50;;
22024;SDS011;11176;51.448;6.650;2023-08-08T12:52:59;4.63;;;1.70;;
22024;SDS011;11176;51.448;6.650;2023-08-08T12:55:26;3.55;;;1.30;;
22024;SDS011;11176;51.448;6.650;2023-08-08T12:57:52;3.70;;;1.38;;
22024;SDS011;11176;51.448;6.650;2023-08-08T13:00:19;4.45;;;1.67;;
22024;SDS011;11176;51.448;6.650;2023-08-08T13:02:45;4.30;;;1.60;;
22024;SDS011;11176;51.448;6.650;2023-08-08T13:05:13;6.13;;;1.48;;
22024;SDS011;11176;51.448;6.650;2023-08-08T13:07:40;4.60;;;1.55;;
22024;SDS011;11176;51.448;6.650;2023-08-08T13:10:06;5.55;;;1.70;;
22024;SDS011;11176;51.448;6.650;2023-08-08T13:12:33;4.15;;;1.90;;
22024;SDS011;11176;51.448;6.650;2023-08-08T13:15:00;3.97;;;1.58;;
22024;SDS011;11176;51.448;6.650;2023-08-08T13:17:26;4.13;;;1.50;;
22024;SDS011;11176;51.448;6.650;2023-08-08T13:19:53;3.78;;;1.52;;
22024;SDS011;11176;51.448;6.650;2023-08-08T13:22:19;3.88;;;1.50;;
22024;SDS011;11176;51.448;6.650;2023-08-08T13:24:46;3.13;;;1.33;;
22024;SDS011;11176;51.448;6.650;2023-08-08T13:27:12;4.72;;;1.13;;
22024;SDS011;11176;51.448;6.650;2023-08-08T13:29:39;4.15;;;1.10;;
22024;SDS011;11176;51.448;6.650;2023-08-08T13:32:06;6.68;;;1.63;;
22024;SDS011;11176;51.448;6.650;2023-08-08T13:34:33;2.20;;;1.10;;
22024;SDS011;11176;51.448;6.650;2023-08-08T13:37:00;3.50;;;1.13;;
22024;SDS011;11176;51.448;6.650;2023-08-08T13:39:26;4.13;;;1.25;;
22024;SDS011;11176;51.448;6.650;2023-08-08T13:41:54;4.63;;;1.10;;
22024;SDS011;11176;51.448;6.650;2023-08-08T13:44:20;2.95;;;1.40;;
22024;SDS011;11176;51.448;6.650;2023-08-08T13:46:48;3.15;;;1.38;;
22024;SDS011;11176;51.448;6.650;2023-08-08T13:49:15;2.35;;;1.10;;
22024;SDS011;11176;51.448;6.650;2023-08-08T13:51:41;2.97;;;1.13;;
22024;SDS011;11176;51.448;6.650;2023-08-08T13:54:12;2.67;;;1.38;;
22024;SDS011;11176;51.448;6.650;2023-08-08T13:56:40;3.97;;;1.20;;
22024;SDS011;11176;51.448;6.650;2023-08-08T13:59:07;3.17;;;1.20;;
22024;SDS011;11176;51.448;6.650;2023-08-08T14:01:33;3.58;;;1.10;;
22024;SDS011;11176;51.448;6.650;2023-08-08T14:04:00;3.67;;;1.00;;
22024;SDS011;11176;51.448;6.650;2023-08-08T14:06:27;3.38;;;1.25;;
22024;SDS011;11176;51.448;6.650;2023-08-08T14:08:55;3.50;;;1.17;;
22024;SDS011;11176;51.448;6.650;2023-08-08T14:11:21;4.97;;;1.10;;
22024;SDS011;11176;51.448;6.650;2023-08-08T14:13:48;2.33;;;1.00;;
22024;SDS011;11176;51.448;6.650;2023-08-08T14:16:14;3.47;;;1.02;;
22024;SDS011;11176;51.448;6.650;2023-08-08T14:18:41;3.47;;;1.10;;
22024;SDS011;11176;51.448;6.650;2023-08-08T14:21:07;4.93;;;1.10;;
22024;SDS011;11176;51.448;6.650;2023-08-08T14:23:34;2.65;;;0.90;;
22024;SDS011;11176;51.448;6.650;2023-08-08T14:26:00;4.30;;;0.95;;
22024;SDS011;11176;51.448;6.650;2023-08-08T14:28:27;3.42;;;1.00;;
22024;SDS011;11176;51.448;6.650;2023-08-08T14:30:54;2.15;;;0.77;;
22024;SDS011;11176;51.448;6.650;2023-08-08T14:33:21;3.53;;;1.02;;
22024;SDS011;11176;51.448;6.650;2023-08-08T14:35:47;2.85;;;1.00;;
22024;SDS011;11176;51.448;6.650;2023-08-08T14:38:14;2.67;;;0.82;;
22024;SDS011;11176;51.448;6.650;2023-08-08T14:40:40;1.77;;;0.77;;
22024;SDS011;11176;51.448;6.650;2023-08-08T14:43:07;2.83;;;0.90;;
22024;SDS011;11176;51.448;6.650;2023-08-08T14:45:38;2.35;;;0.68;;
22024;SDS011;11176;51.448;6.650;2023-08-08T14:48:05;2.70;;;0.55;;